sensor_id;sensor_type;location;lat;lon;timestamp;temperature;humidity
25933;DHT22;13731;51.166;4.474;2022-10-16T00:02:12;13.70;18.60
25933;DHT22;13731;51.166;4.474;2022-10-16T00:04:38;13.70;11.70
25933;DHT22;13731;51.166;4.474;2022-10-16T00:07:04;13.70;14.30
25933;DHT22;13731;51.166;4.474;2022-10-16T00:09:29;13.70;21.90
25933;DHT22;13731;51.166;4.474;2022-10-16T00:11:55;13.60;28.40
25933;DHT22;13731;51.166;4.474;2022-10-16T00:14:21;13.60;29.70
25933;DHT22;13731;51.166;4.474;2022-10-16T00:16:46;13.60;33.70
25933;DHT22;13731;51.166;4.474;2022-10-16T00:19:12;13.60;38.40
25933;DHT22;13731;51.166;4.474;2022-10-16T00:21:38;13.60;36.80
25933;DHT22;13731;51.166;4.474;2022-10-16T00:24:05;13.70;30.60
25933;DHT22;13731;51.166;4.474;2022-10-16T00:26:32;13.80;20.40
25933;DHT22;13731;51.166;4.474;2022-10-16T00:28:58;13.80;13.50
25933;DHT22;13731;51.166;4.474;2022-10-16T00:31:24;13.80;13.90
25933;DHT22;13731;51.166;4.474;2022-10-16T00:33:50;13.70;23.00
25933;DHT22;13731;51.166;4.474;2022-10-16T00:36:17;13.70;28.70
25933;DHT22;13731;51.166;4.474;2022-10-16T00:38:43;13.70;29.90
25933;DHT22;13731;51.166;4.474;2022-10-16T00:41:10;13.70;34.50
25933;DHT22;13731;51.166;4.474;2022-10-16T00:43:38;13.60;41.00
25933;DHT22;13731;51.166;4.474;2022-10-16T00:46:05;13.60;41.40
25933;DHT22;13731;51.166;4.474;2022-10-16T00:48:34;13.60;44.60
25933;DHT22;13731;51.166;4.474;2022-10-16T00:50:59;13.50;48.30
25933;DHT22;13731;51.166;4.474;2022-10-16T00:53:25;13.60;51.20
25933;DHT22;13731;51.166;4.474;2022-10-16T00:55:52;13.50;52.40
25933;DHT22;13731;51.166;4.474;2022-10-16T00:58:18;13.50;55.90
25933;DHT22;13731;51.166;4.474;2022-10-16T01:00:45;13.50;57.30
25933;DHT22;13731;51.166;4.474;2022-10-16T01:03:28;13.50;64.30
25933;DHT22;13731;51.166;4.474;2022-10-16T01:06:19;13.50;59.10
25933;DHT22;13731;51.166;4.474;2022-10-16T01:09:04;13.50;56.00
25933;DHT22;13731;51.166;4.474;2022-10-16T01:11:42;13.50;56.30
25933;DHT22;13731;51.166;4.474;2022-10-16T01:14:21;13.60;56.80
25933;DHT22;13731;51.166;4.474;2022-10-16T01:16:49;13.50;57.60
25933;DHT22;13731;51.166;4.474;2022-10-16T01:19:25;13.40;70.00
25933;DHT22;13731;51.166;4.474;2022-10-16T01:21:51;13.40;79.40
25933;DHT22;13731;51.166;4.474;2022-10-16T01:31:58;13.50;55.30
25933;DHT22;13731;51.166;4.474;2022-10-16T01:34:28;13.40;59.90
25933;DHT22;13731;51.166;4.474;2022-10-16T01:36:57;13.40;67.80
25933;DHT22;13731;51.166;4.474;2022-10-16T01:39:28;13.30;71.60
25933;DHT22;13731;51.166;4.474;2022-10-16T01:41:56;13.30;80.80
25933;DHT22;13731;51.166;4.474;2022-10-16T01:44:25;13.30;77.80
25933;DHT22;13731;51.166;4.474;2022-10-16T01:46:52;13.20;86.00
25933;DHT22;13731;51.166;4.474;2022-10-16T01:49:18;13.20;91.40
25933;DHT22;13731;51.166;4.474;2022-10-16T01:51:46;13.10;92.00
25933;DHT22;13731;51.166;4.474;2022-10-16T01:54:12;13.10;93.80
25933;DHT22;13731;51.166;4.474;2022-10-16T01:56:39;13.10;94.70
25933;DHT22;13731;51.166;4.474;2022-10-16T01:59:06;13.10;94.80
25933;DHT22;13731;51.166;4.474;2022-10-16T02:01:33;13.10;96.40
25933;DHT22;13731;51.166;4.474;2022-10-16T02:04:02;13.10;96.70
25933;DHT22;13731;51.166;4.474;2022-10-16T02:06:29;13.10;96.60
25933;DHT22;13731;51.166;4.474;2022-10-16T02:08:55;13.10;98.40
25933;DHT22;13731;51.166;4.474;2022-10-16T02:11:21;13.00;98.60
25933;DHT22;13731;51.166;4.474;2022-10-16T02:13:48;13.00;99.90
25933;DHT22;13731;51.166;4.474;2022-10-16T02:16:15;13.00;99.90
25933;DHT22;13731;51.166;4.474;2022-10-16T02:18:41;12.90;99.90
25933;DHT22;13731;51.166;4.474;2022-10-16T02:21:16;13.00;99.90
25933;DHT22;13731;51.166;4.474;2022-10-16T02:26:30;13.00;99.90
25933;DHT22;13731;51.166;4.474;2022-10-16T02:28:59;13.00;99.90
25933;DHT22;13731;51.166;4.474;2022-10-16T02:31:27;12.90;99.90
25933;DHT22;13731;51.166;4.474;2022-10-16T02:33:53;12.90;99.90
25933;DHT22;13731;51.166;4.474;2022-10-16T02:36:20;12.80;99.90
25933;DHT22;13731;51.166;4.474;2022-10-16T02:38:46;12.80;99.90
25933;DHT22;13731;51.166;4.474;2022-10-16T02:41:12;12.80;99.90
25933;DHT22;13731;51.166;4.474;2022-10-16T02:43:38;12.80;99.90
25933;DHT22;13731;51.166;4.474;2022-10-16T02:46:03;12.80;99.90
25933;DHT22;13731;51.166;4.474;2022-10-16T02:48:29;12.80;99.90
25933;DHT22;13731;51.166;4.474;2022-10-16T02:50:55;12.70;99.90
25933;DHT22;13731;51.166;4.474;2022-10-16T02:53:21;12.70;99.90
25933;DHT22;13731;51.166;4.474;2022-10-16T02:55:46;12.80;99.90
25933;DHT22;13731;51.166;4.474;2022-10-16T02:58:12;12.80;99.90
25933;DHT22;13731;51.166;4.474;2022-10-16T03:00:38;12.80;99.90
25933;DHT22;13731;51.166;4.474;2022-10-16T03:03:04;12.80;99.90
25933;DHT22;13731;51.166;4.474;2022-10-16T03:05:30;12.80;99.90
25933;DHT22;13731;51.166;4.474;2022-10-16T03:07:55;12.80;99.90
25933;DHT22;13731;51.166;4.474;2022-10-16T03:10:21;12.80;99.90
25933;DHT22;13731;51.166;4.474;2022-10-16T03:12:47;12.90;99.90
25933;DHT22;13731;51.166;4.474;2022-10-16T03:15:12;12.90;99.90
25933;DHT22;13731;51.166;4.474;2022-10-16T03:17:38;12.90;99.90
25933;DHT22;13731;51.166;4.474;2022-10-16T03:20:04;12.90;99.90
25933;DHT22;13731;51.166;4.474;2022-10-16T03:22:30;12.90;99.90
25933;DHT22;13731;51.166;4.474;2022-10-16T03:24:55;12.90;99.90
25933;DHT22;13731;51.166;4.474;2022-10-16T03:27:21;12.90;99.90
25933;DHT22;13731;51.166;4.474;2022-10-16T03:29:47;12.90;99.90
25933;DHT22;13731;51.166;4.474;2022-10-16T03:32:12;12.90;99.90
25933;DHT22;13731;51.166;4.474;2022-10-16T03:34:38;12.90;99.90
25933;DHT22;13731;51.166;4.474;2022-10-16T03:37:03;12.90;99.90
25933;DHT22;13731;51.166;4.474;2022-10-16T03:39:29;13.00;99.90
25933;DHT22;13731;51.166;4.474;2022-10-16T03:41:55;13.10;99.90
25933;DHT22;13731;51.166;4.474;2022-10-16T03:44:20;13.10;99.70
25933;DHT22;13731;51.166;4.474;2022-10-16T03:46:46;13.10;97.80
25933;DHT22;13731;51.166;4.474;2022-10-16T03:49:12;13.10;99.90
25933;DHT22;13731;51.166;4.474;2022-10-16T03:51:38;13.00;99.90
25933;DHT22;13731;51.166;4.474;2022-10-16T03:54:04;13.00;99.90
25933;DHT22;13731;51.166;4.474;2022-10-16T03:56:29;13.00;99.90
25933;DHT22;13731;51.166;4.474;2022-10-16T03:58:55;13.00;99.90
25933;DHT22;13731;51.166;4.474;2022-10-16T04:01:21;13.00;99.90
25933;DHT22;13731;51.166;4.474;2022-10-16T04:03:46;13.00;99.90
25933;DHT22;13731;51.166;4.474;2022-10-16T04:06:12;13.00;99.90
25933;DHT22;13731;51.166;4.474;2022-10-16T04:08:38;13.00;99.90
25933;DHT22;13731;51.166;4.474;2022-10-16T04:11:04;13.00;99.90
25933;DHT22;13731;51.166;4.474;2022-10-16T04:13:30;13.00;99.90
25933;DHT22;13731;51.166;4.474;2022-10-16T04:15:55;13.00;99.90
25933;DHT22;13731;51.166;4.474;2022-10-16T04:18:21;13.00;99.90
25933;DHT22;13731;51.166;4.474;2022-10-16T04:20:47;12.90;99.90
25933;DHT22;13731;51.166;4.474;2022-10-16T04:23:13;12.90;99.90
25933;DHT22;13731;51.166;4.474;2022-10-16T04:25:38;13.00;99.90
25933;DHT22;13731;51.166;4.474;2022-10-16T04:28:04;13.00;99.90
25933;DHT22;13731;51.166;4.474;2022-10-16T04:30:30;13.00;99.90
25933;DHT22;13731;51.166;4.474;2022-10-16T04:32:56;13.00;99.90
25933;DHT22;13731;51.166;4.474;2022-10-16T04:35:22;13.00;99.90
25933;DHT22;13731;51.166;4.474;2022-10-16T04:37:48;13.00;99.90
25933;DHT22;13731;51.166;4.474;2022-10-16T04:40:13;12.90;99.90
25933;DHT22;13731;51.166;4.474;2022-10-16T04:42:39;12.90;99.90
25933;DHT22;13731;51.166;4.474;2022-10-16T04:45:06;13.00;99.90
25933;DHT22;13731;51.166;4.474;2022-10-16T04:47:33;12.90;99.90
25933;DHT22;13731;51.166;4.474;2022-10-16T04:49:59;12.80;99.90
25933;DHT22;13731;51.166;4.474;2022-10-16T04:52:27;12.80;99.90
25933;DHT22;13731;51.166;4.474;2022-10-16T04:54:53;12.80;99.90
25933;DHT22;13731;51.166;4.474;2022-10-16T04:57:19;12.70;99.90
25933;DHT22;13731;51.166;4.474;2022-10-16T04:59:45;12.70;99.90
25933;DHT22;13731;51.166;4.474;2022-10-16T05:02:10;12.70;99.90
25933;DHT22;13731;51.166;4.474;2022-10-16T05:04:36;12.70;99.90
25933;DHT22;13731;51.166;4.474;2022-10-16T05:07:02;12.60;99.90
25933;DHT22;13731;51.166;4.474;2022-10-16T05:09:27;12.70;99.90
25933;DHT22;13731;51.166;4.474;2022-10-16T05:11:53;12.70;99.90
25933;DHT22;13731;51.166;4.474;2022-10-16T05:14:19;12.60;99.90
25933;DHT22;13731;51.166;4.474;2022-10-16T05:16:45;12.60;99.90
25933;DHT22;13731;51.166;4.474;2022-10-16T05:19:10;12.50;99.90
25933;DHT22;13731;51.166;4.474;2022-10-16T05:21:36;12.60;99.90
25933;DHT22;13731;51.166;4.474;2022-10-16T05:24:02;12.60;99.90
25933;DHT22;13731;51.166;4.474;2022-10-16T05:26:27;12.60;99.90
25933;DHT22;13731;51.166;4.474;2022-10-16T05:28:53;12.60;99.90
25933;DHT22;13731;51.166;4.474;2022-10-16T05:31:19;12.60;99.90
25933;DHT22;13731;51.166;4.474;2022-10-16T05:33:45;12.50;99.90
25933;DHT22;13731;51.166;4.474;2022-10-16T05:36:10;12.50;99.90
25933;DHT22;13731;51.166;4.474;2022-10-16T05:38:36;12.50;99.90
25933;DHT22;13731;51.166;4.474;2022-10-16T05:41:02;12.50;99.90
25933;DHT22;13731;51.166;4.474;2022-10-16T05:43:28;12.50;99.90
25933;DHT22;13731;51.166;4.474;2022-10-16T05:45:55;12.50;99.90
25933;DHT22;13731;51.166;4.474;2022-10-16T05:48:20;12.50;99.90
25933;DHT22;13731;51.166;4.474;2022-10-16T05:50:46;12.50;99.90
25933;DHT22;13731;51.166;4.474;2022-10-16T05:53:12;12.40;99.90
25933;DHT22;13731;51.166;4.474;2022-10-16T05:55:37;12.40;99.90
25933;DHT22;13731;51.166;4.474;2022-10-16T05:58:03;12.40;99.90
25933;DHT22;13731;51.166;4.474;2022-10-16T06:00:29;12.40;99.90
25933;DHT22;13731;51.166;4.474;2022-10-16T06:02:54;12.40;99.90
25933;DHT22;13731;51.166;4.474;2022-10-16T06:05:20;12.40;99.90
25933;DHT22;13731;51.166;4.474;2022-10-16T06:07:46;12.40;99.90
25933;DHT22;13731;51.166;4.474;2022-10-16T06:10:11;12.40;99.90
25933;DHT22;13731;51.166;4.474;2022-10-16T06:12:37;12.50;99.90
25933;DHT22;13731;51.166;4.474;2022-10-16T06:15:03;12.60;99.90
25933;DHT22;13731;51.166;4.474;2022-10-16T06:17:28;12.70;99.90
25933;DHT22;13731;51.166;4.474;2022-10-16T06:19:54;12.80;99.90
25933;DHT22;13731;51.166;4.474;2022-10-16T06:22:20;12.90;99.90
25933;DHT22;13731;51.166;4.474;2022-10-16T06:24:45;12.90;99.90
25933;DHT22;13731;51.166;4.474;2022-10-16T06:27:11;13.00;99.90
25933;DHT22;13731;51.166;4.474;2022-10-16T06:29:37;13.00;99.90
25933;DHT22;13731;51.166;4.474;2022-10-16T06:32:03;13.10;99.90
25933;DHT22;13731;51.166;4.474;2022-10-16T06:34:29;13.10;99.90
25933;DHT22;13731;51.166;4.474;2022-10-16T06:36:54;13.00;99.90
25933;DHT22;13731;51.166;4.474;2022-10-16T06:39:20;12.90;99.90
25933;DHT22;13731;51.166;4.474;2022-10-16T06:41:46;13.00;99.90
25933;DHT22;13731;51.166;4.474;2022-10-16T06:44:14;13.00;99.90
25933;DHT22;13731;51.166;4.474;2022-10-16T06:46:40;13.00;99.90
25933;DHT22;13731;51.166;4.474;2022-10-16T06:49:08;12.90;99.90
25933;DHT22;13731;51.166;4.474;2022-10-16T06:51:34;12.90;99.90
25933;DHT22;13731;51.166;4.474;2022-10-16T06:54:01;12.90;99.90
25933;DHT22;13731;51.166;4.474;2022-10-16T06:56:27;12.90;99.90
25933;DHT22;13731;51.166;4.474;2022-10-16T06:58:55;12.90;99.90
25933;DHT22;13731;51.166;4.474;2022-10-16T07:01:22;13.00;99.90
25933;DHT22;13731;51.166;4.474;2022-10-16T07:03:48;13.00;99.90
25933;DHT22;13731;51.166;4.474;2022-10-16T07:06:15;13.10;99.90
25933;DHT22;13731;51.166;4.474;2022-10-16T07:08:42;13.20;99.90
25933;DHT22;13731;51.166;4.474;2022-10-16T07:11:09;13.30;99.90
25933;DHT22;13731;51.166;4.474;2022-10-16T07:13:39;13.50;99.90
25933;DHT22;13731;51.166;4.474;2022-10-16T07:16:06;13.60;99.90
25933;DHT22;13731;51.166;4.474;2022-10-16T07:18:32;13.70;99.90
25933;DHT22;13731;51.166;4.474;2022-10-16T07:21:11;13.60;99.90
25933;DHT22;13731;51.166;4.474;2022-10-16T07:23:37;13.50;99.90
25933;DHT22;13731;51.166;4.474;2022-10-16T07:26:03;13.60;99.90
25933;DHT22;13731;51.166;4.474;2022-10-16T07:28:29;13.60;99.90
25933;DHT22;13731;51.166;4.474;2022-10-16T07:30:55;13.50;99.90
25933;DHT22;13731;51.166;4.474;2022-10-16T07:33:21;13.60;99.90
25933;DHT22;13731;51.166;4.474;2022-10-16T07:35:48;13.70;99.90
25933;DHT22;13731;51.166;4.474;2022-10-16T07:38:14;13.70;99.90
25933;DHT22;13731;51.166;4.474;2022-10-16T07:40:39;13.90;99.90
25933;DHT22;13731;51.166;4.474;2022-10-16T07:43:05;14.00;99.90
25933;DHT22;13731;51.166;4.474;2022-10-16T07:45:31;14.10;99.90
25933;DHT22;13731;51.166;4.474;2022-10-16T07:47:56;14.20;99.90
25933;DHT22;13731;51.166;4.474;2022-10-16T07:50:22;14.30;99.90
25933;DHT22;13731;51.166;4.474;2022-10-16T07:52:47;14.30;99.90
25933;DHT22;13731;51.166;4.474;2022-10-16T07:55:13;14.30;99.90
25933;DHT22;13731;51.166;4.474;2022-10-16T07:57:39;14.20;99.90
25933;DHT22;13731;51.166;4.474;2022-10-16T08:00:05;14.40;99.90
25933;DHT22;13731;51.166;4.474;2022-10-16T08:02:37;14.50;99.90
25933;DHT22;13731;51.166;4.474;2022-10-16T08:05:03;14.60;99.90
25933;DHT22;13731;51.166;4.474;2022-10-16T08:07:29;14.70;99.90
25933;DHT22;13731;51.166;4.474;2022-10-16T08:09:55;14.80;99.90
25933;DHT22;13731;51.166;4.474;2022-10-16T08:12:21;14.80;99.90
25933;DHT22;13731;51.166;4.474;2022-10-16T08:14:47;14.80;99.90
25933;DHT22;13731;51.166;4.474;2022-10-16T08:17:14;14.80;99.90
25933;DHT22;13731;51.166;4.474;2022-10-16T08:19:44;14.80;99.90
25933;DHT22;13731;51.166;4.474;2022-10-16T08:22:09;14.90;99.90
25933;DHT22;13731;51.166;4.474;2022-10-16T08:24:35;15.00;99.90
25933;DHT22;13731;51.166;4.474;2022-10-16T08:27:02;15.10;99.90
25933;DHT22;13731;51.166;4.474;2022-10-16T08:29:28;15.30;99.90
25933;DHT22;13731;51.166;4.474;2022-10-16T08:31:54;15.30;99.90
25933;DHT22;13731;51.166;4.474;2022-10-16T08:34:19;15.40;99.90
25933;DHT22;13731;51.166;4.474;2022-10-16T08:36:45;15.50;99.90
25933;DHT22;13731;51.166;4.474;2022-10-16T08:39:11;15.50;99.90
25933;DHT22;13731;51.166;4.474;2022-10-16T08:46:46;15.60;99.90
25933;DHT22;13731;51.166;4.474;2022-10-16T08:49:14;15.60;99.90
25933;DHT22;13731;51.166;4.474;2022-10-16T08:51:40;15.60;99.90
25933;DHT22;13731;51.166;4.474;2022-10-16T08:54:18;15.70;99.90
25933;DHT22;13731;51.166;4.474;2022-10-16T08:56:46;16.20;99.90
25933;DHT22;13731;51.166;4.474;2022-10-16T08:59:12;16.40;1.00
25933;DHT22;13731;51.166;4.474;2022-10-16T09:01:45;16.30;99.90
25933;DHT22;13731;51.166;4.474;2022-10-16T09:06:52;16.20;99.90
25933;DHT22;13731;51.166;4.474;2022-10-16T09:12:07;16.40;99.90
25933;DHT22;13731;51.166;4.474;2022-10-16T09:14:50;16.40;99.90
25933;DHT22;13731;51.166;4.474;2022-10-16T09:17:30;16.60;1.00
25933;DHT22;13731;51.166;4.474;2022-10-16T09:22:28;16.60;1.00
25933;DHT22;13731;51.166;4.474;2022-10-16T09:24:57;16.80;1.00
25933;DHT22;13731;51.166;4.474;2022-10-16T09:27:25;16.80;99.90
25933;DHT22;13731;51.166;4.474;2022-10-16T09:29:51;16.90;1.00
25933;DHT22;13731;51.166;4.474;2022-10-16T09:32:20;16.90;1.00
25933;DHT22;13731;51.166;4.474;2022-10-16T09:34:52;16.90;99.90
25933;DHT22;13731;51.166;4.474;2022-10-16T09:37:20;16.80;1.00
25933;DHT22;13731;51.166;4.474;2022-10-16T09:39:48;16.80;1.00
25933;DHT22;13731;51.166;4.474;2022-10-16T09:42:16;16.80;1.00
25933;DHT22;13731;51.166;4.474;2022-10-16T09:44:46;16.90;1.00
25933;DHT22;13731;51.166;4.474;2022-10-16T09:47:31;17.00;99.90
25933;DHT22;13731;51.166;4.474;2022-10-16T09:50:01;16.90;99.90
25933;DHT22;13731;51.166;4.474;2022-10-16T09:52:29;17.20;99.90
25933;DHT22;13731;51.166;4.474;2022-10-16T09:54:57;17.30;99.90
25933;DHT22;13731;51.166;4.474;2022-10-16T09:57:23;17.30;1.00
25933;DHT22;13731;51.166;4.474;2022-10-16T09:59:52;18.00;1.00
25933;DHT22;13731;51.166;4.474;2022-10-16T10:02:39;19.50;1.00
25933;DHT22;13731;51.166;4.474;2022-10-16T10:05:05;21.10;1.00
25933;DHT22;13731;51.166;4.474;2022-10-16T10:07:33;22.00;47.10
25933;DHT22;13731;51.166;4.474;2022-10-16T10:10:00;22.40;1.00
25933;DHT22;13731;51.166;4.474;2022-10-16T10:12:27;23.20;99.90
25933;DHT22;13731;51.166;4.474;2022-10-16T10:14:54;24.30;1.00
25933;DHT22;13731;51.166;4.474;2022-10-16T10:17:21;25.00;99.90
25933;DHT22;13731;51.166;4.474;2022-10-16T10:24:44;25.10;99.90
25933;DHT22;13731;51.166;4.474;2022-10-16T10:27:11;24.90;99.90
25933;DHT22;13731;51.166;4.474;2022-10-16T10:37:04;22.90;1.00
25933;DHT22;13731;51.166;4.474;2022-10-16T10:39:33;21.20;99.90
25933;DHT22;13731;51.166;4.474;2022-10-16T10:42:08;20.80;99.90
25933;DHT22;13731;51.166;4.474;2022-10-16T10:47:16;20.50;1.00
25933;DHT22;13731;51.166;4.474;2022-10-16T10:53:32;21.00;99.90
25933;DHT22;13731;51.166;4.474;2022-10-16T10:55:40;21.30;99.90
25933;DHT22;13731;51.166;4.474;2022-10-16T10:58:21;21.20;1.00
25933;DHT22;13731;51.166;4.474;2022-10-16T11:06:08;20.90;1.00
25933;DHT22;13731;51.166;4.474;2022-10-16T11:08:37;21.10;1.00
25933;DHT22;13731;51.166;4.474;2022-10-16T11:11:17;21.00;1.00
25933;DHT22;13731;51.166;4.474;2022-10-16T11:14:28;21.00;99.90
25933;DHT22;13731;51.166;4.474;2022-10-16T11:16:36;21.10;1.00
25933;DHT22;13731;51.166;4.474;2022-10-16T11:19:04;21.60;1.00
25933;DHT22;13731;51.166;4.474;2022-10-16T11:21:39;23.60;99.90
25933;DHT22;13731;51.166;4.474;2022-10-16T11:26:39;25.80;99.90
25933;DHT22;13731;51.166;4.474;2022-10-16T11:29:10;25.20;99.90
25933;DHT22;13731;51.166;4.474;2022-10-16T11:31:38;24.60;99.90
25933;DHT22;13731;51.166;4.474;2022-10-16T11:34:28;23.70;99.90
25933;DHT22;13731;51.166;4.474;2022-10-16T11:37:14;21.60;1.00
25933;DHT22;13731;51.166;4.474;2022-10-16T11:39:37;20.50;1.00
25933;DHT22;13731;51.166;4.474;2022-10-16T11:50:03;25.30;99.90
25933;DHT22;13731;51.166;4.474;2022-10-16T11:52:36;25.20;99.90
25933;DHT22;13731;51.166;4.474;2022-10-16T11:57:52;25.00;99.90
25933;DHT22;13731;51.166;4.474;2022-10-16T12:05:22;28.50;1.00
25933;DHT22;13731;51.166;4.474;2022-10-16T12:07:55;28.80;1.00
25933;DHT22;13731;51.166;4.474;2022-10-16T12:10:24;28.20;1.00
25933;DHT22;13731;51.166;4.474;2022-10-16T12:12:51;26.90;1.00
25933;DHT22;13731;51.166;4.474;2022-10-16T12:15:26;26.20;1.00
25933;DHT22;13731;51.166;4.474;2022-10-16T12:17:53;26.50;1.00
25933;DHT22;13731;51.166;4.474;2022-10-16T12:20:20;28.60;1.00
25933;DHT22;13731;51.166;4.474;2022-10-16T12:25:22;25.90;1.00
25933;DHT22;13731;51.166;4.474;2022-10-16T12:30:22;23.50;99.90
25933;DHT22;13731;51.166;4.474;2022-10-16T12:33:34;23.20;99.90
25933;DHT22;13731;51.166;4.474;2022-10-16T12:35:35;23.10;99.90
25933;DHT22;13731;51.166;4.474;2022-10-16T12:48:31;24.00;99.90
25933;DHT22;13731;51.166;4.474;2022-10-16T12:51:08;24.70;99.90
25933;DHT22;13731;51.166;4.474;2022-10-16T12:53:34;25.50;99.90
25933;DHT22;13731;51.166;4.474;2022-10-16T13:17:04;21.60;22.20
25933;DHT22;13731;51.166;4.474;2022-10-16T13:22:24;24.20;99.90
25933;DHT22;13731;51.166;4.474;2022-10-16T13:32:48;22.10;1.00
25933;DHT22;13731;51.166;4.474;2022-10-16T13:35:18;22.20;1.00
25933;DHT22;13731;51.166;4.474;2022-10-16T13:37:44;21.80;1.00
25933;DHT22;13731;51.166;4.474;2022-10-16T13:40:23;21.90;1.00
25933;DHT22;13731;51.166;4.474;2022-10-16T13:42:50;21.60;80.70
25933;DHT22;13731;51.166;4.474;2022-10-16T13:45:17;21.60;99.90
25933;DHT22;13731;51.166;4.474;2022-10-16T13:47:43;21.90;1.00
25933;DHT22;13731;51.166;4.474;2022-10-16T13:50:11;22.00;22.90
25933;DHT22;13731;51.166;4.474;2022-10-16T13:52:37;22.40;1.00
25933;DHT22;13731;51.166;4.474;2022-10-16T13:55:13;23.70;99.90
25933;DHT22;13731;51.166;4.474;2022-10-16T13:57:39;23.40;99.90
25933;DHT22;13731;51.166;4.474;2022-10-16T14:00:26;22.40;1.00
25933;DHT22;13731;51.166;4.474;2022-10-16T14:03:05;22.00;1.00
25933;DHT22;13731;51.166;4.474;2022-10-16T14:05:32;22.00;1.00
25933;DHT22;13731;51.166;4.474;2022-10-16T14:07:58;22.80;1.00
25933;DHT22;13731;51.166;4.474;2022-10-16T14:10:25;22.70;1.00
25933;DHT22;13731;51.166;4.474;2022-10-16T14:13:02;21.90;2.10
25933;DHT22;13731;51.166;4.474;2022-10-16T14:15:29;22.40;47.40
25933;DHT22;13731;51.166;4.474;2022-10-16T14:17:55;21.80;99.90
25933;DHT22;13731;51.166;4.474;2022-10-16T14:20:23;21.70;99.90
25933;DHT22;13731;51.166;4.474;2022-10-16T14:22:57;21.50;99.90
25933;DHT22;13731;51.166;4.474;2022-10-16T14:25:24;21.20;60.10
25933;DHT22;13731;51.166;4.474;2022-10-16T14:28:04;21.50;11.40
25933;DHT22;13731;51.166;4.474;2022-10-16T14:30:32;22.60;99.90
25933;DHT22;13731;51.166;4.474;2022-10-16T14:32:59;22.80;1.00
25933;DHT22;13731;51.166;4.474;2022-10-16T14:35:32;23.10;1.00
25933;DHT22;13731;51.166;4.474;2022-10-16T14:37:58;22.50;12.10
25933;DHT22;13731;51.166;4.474;2022-10-16T14:40:29;22.90;1.00
25933;DHT22;13731;51.166;4.474;2022-10-16T14:42:55;24.20;1.00
25933;DHT22;13731;51.166;4.474;2022-10-16T14:45:22;26.00;99.90
25933;DHT22;13731;51.166;4.474;2022-10-16T14:47:50;25.80;99.90
25933;DHT22;13731;51.166;4.474;2022-10-16T14:50:16;25.50;99.90
25933;DHT22;13731;51.166;4.474;2022-10-16T14:52:43;24.60;99.90
25933;DHT22;13731;51.166;4.474;2022-10-16T14:55:09;23.30;99.90
25933;DHT22;13731;51.166;4.474;2022-10-16T14:57:35;22.20;1.00
25933;DHT22;13731;51.166;4.474;2022-10-16T15:00:02;21.80;99.90
25933;DHT22;13731;51.166;4.474;2022-10-16T15:02:32;21.40;1.00
25933;DHT22;13731;51.166;4.474;2022-10-16T15:04:59;21.10;1.00
25933;DHT22;13731;51.166;4.474;2022-10-16T15:07:27;20.90;99.90
25933;DHT22;13731;51.166;4.474;2022-10-16T15:09:53;21.00;99.90
25933;DHT22;13731;51.166;4.474;2022-10-16T15:12:19;21.10;99.90
25933;DHT22;13731;51.166;4.474;2022-10-16T15:14:45;21.00;99.90
25933;DHT22;13731;51.166;4.474;2022-10-16T15:17:11;21.20;99.90
25933;DHT22;13731;51.166;4.474;2022-10-16T15:19:36;21.40;1.00
25933;DHT22;13731;51.166;4.474;2022-10-16T15:22:02;21.40;1.00
25933;DHT22;13731;51.166;4.474;2022-10-16T15:24:28;20.80;99.90
25933;DHT22;13731;51.166;4.474;2022-10-16T15:26:54;20.40;1.00
25933;DHT22;13731;51.166;4.474;2022-10-16T15:29:19;20.30;99.90
25933;DHT22;13731;51.166;4.474;2022-10-16T15:31:45;20.30;99.90
25933;DHT22;13731;51.166;4.474;2022-10-16T15:34:13;20.40;99.90
25933;DHT22;13731;51.166;4.474;2022-10-16T15:36:39;20.40;99.90
25933;DHT22;13731;51.166;4.474;2022-10-16T15:39:18;20.20;99.90
25933;DHT22;13731;51.166;4.474;2022-10-16T15:41:45;20.10;1.00
25933;DHT22;13731;51.166;4.474;2022-10-16T15:44:16;20.10;1.00
25933;DHT22;13731;51.166;4.474;2022-10-16T15:46:42;20.10;1.00
25933;DHT22;13731;51.166;4.474;2022-10-16T15:49:08;20.10;1.00
25933;DHT22;13731;51.166;4.474;2022-10-16T15:51:34;20.00;1.00
25933;DHT22;13731;51.166;4.474;2022-10-16T15:54:02;20.00;1.00
25933;DHT22;13731;51.166;4.474;2022-10-16T15:56:28;19.80;99.90
25933;DHT22;13731;51.166;4.474;2022-10-16T15:58:54;19.70;1.00
25933;DHT22;13731;51.166;4.474;2022-10-16T16:01:20;19.60;1.00
25933;DHT22;13731;51.166;4.474;2022-10-16T16:03:46;19.50;99.90
25933;DHT22;13731;51.166;4.474;2022-10-16T16:06:12;19.40;99.90
25933;DHT22;13731;51.166;4.474;2022-10-16T16:08:39;19.30;1.00
25933;DHT22;13731;51.166;4.474;2022-10-16T16:11:09;19.30;1.00
25933;DHT22;13731;51.166;4.474;2022-10-16T16:13:34;19.30;1.00
25933;DHT22;13731;51.166;4.474;2022-10-16T16:16:04;19.40;1.00
25933;DHT22;13731;51.166;4.474;2022-10-16T16:18:30;19.30;1.00
25933;DHT22;13731;51.166;4.474;2022-10-16T16:20:56;19.10;1.00
25933;DHT22;13731;51.166;4.474;2022-10-16T16:23:22;19.10;78.80
25933;DHT22;13731;51.166;4.474;2022-10-16T16:28:33;19.10;99.90
25933;DHT22;13731;51.166;4.474;2022-10-16T16:30:58;19.00;99.90
25933;DHT22;13731;51.166;4.474;2022-10-16T16:33:24;18.80;1.00
25933;DHT22;13731;51.166;4.474;2022-10-16T16:35:50;18.80;1.00
25933;DHT22;13731;51.166;4.474;2022-10-16T16:38:16;18.70;1.00
25933;DHT22;13731;51.166;4.474;2022-10-16T16:40:42;18.70;91.80
25933;DHT22;13731;51.166;4.474;2022-10-16T16:43:08;18.70;99.90
25933;DHT22;13731;51.166;4.474;2022-10-16T16:45:37;18.60;1.00
25933;DHT22;13731;51.166;4.474;2022-10-16T16:48:03;18.50;1.00
25933;DHT22;13731;51.166;4.474;2022-10-16T16:50:28;18.40;26.40
25933;DHT22;13731;51.166;4.474;2022-10-16T16:52:54;18.20;1.00
25933;DHT22;13731;51.166;4.474;2022-10-16T16:55:20;18.10;1.00
25933;DHT22;13731;51.166;4.474;2022-10-16T16:57:47;18.00;99.90
25933;DHT22;13731;51.166;4.474;2022-10-16T17:00:13;18.10;99.90
25933;DHT22;13731;51.166;4.474;2022-10-16T17:02:39;18.10;99.90
25933;DHT22;13731;51.166;4.474;2022-10-16T17:05:08;18.00;99.90
25933;DHT22;13731;51.166;4.474;2022-10-16T17:07:34;18.00;99.90
25933;DHT22;13731;51.166;4.474;2022-10-16T17:10:00;17.90;1.00
25933;DHT22;13731;51.166;4.474;2022-10-16T17:12:26;18.00;99.90
25933;DHT22;13731;51.166;4.474;2022-10-16T17:14:52;18.00;99.90
25933;DHT22;13731;51.166;4.474;2022-10-16T17:17:18;17.90;1.00
25933;DHT22;13731;51.166;4.474;2022-10-16T17:19:44;18.00;99.90
25933;DHT22;13731;51.166;4.474;2022-10-16T17:22:09;18.00;1.00
25933;DHT22;13731;51.166;4.474;2022-10-16T17:24:35;17.80;1.00
25933;DHT22;13731;51.166;4.474;2022-10-16T17:27:01;17.80;99.90
25933;DHT22;13731;51.166;4.474;2022-10-16T17:29:27;17.80;99.90
25933;DHT22;13731;51.166;4.474;2022-10-16T17:31:52;17.80;99.90
25933;DHT22;13731;51.166;4.474;2022-10-16T17:34:20;17.90;99.90